Time;durP1;ratioP1;P1;durP2;ratioP2;P2;SDS_P1;SDS_P2;PMS_P1;PMS_P2;Temp;Humidity;BMP_temperature;BMP_pressure;BME280_temperature;BME280_humidity;BME280_pressure;Samples;Min_cycle;Max_cycle;Signal;HPM_P1;HPM_P2
2021/05/15 00:01:59;;;;;;;;;;;;;;;;;;5045836;28;19909;-84
2021/05/15 00:07:08;;;;;;;;;;;;;;;;;;5062393;28;19916;-84
2021/05/15 00:09:33;;;;;;;;;;;;;;;;;;5045144;28;19913;-86
2021/05/15 00:11:58;;;;;;;;;;;;;;;;;;5063353;28;19956;-85
2021/05/15 00:17:08;;;;;;;;;;;;;;;;;;5063848;28;20004;-86
2021/05/15 00:19:34;;;;;;;;;;;;;;;;;;5047653;28;19908;-87
2021/05/15 00:21:59;;;;;;;;;;;;;;;;;;5047210;28;19967;-87
2021/05/15 00:24:25;;;;;;;;;;;;;;;;;;5048757;28;19912;-88
2021/05/15 00:26:50;;;;;;;;;;;;;;;;;;5047917;28;19948;-86
2021/05/15 00:29:15;;;;;;;;;;;;;;;;;;5047679;28;19893;-86
2021/05/15 00:31:40;;;;;;;;;;;;;;;;;;5049287;28;19912;-87
2021/05/15 00:34:05;;;;;;;;;;;;;;;;;;5049036;28;19952;-88
2021/05/15 00:36:31;;;;;;;;;;;;;;;;;;5048740;28;19913;-87
2021/05/15 00:38:56;;;;;;;;;;;;;;;;;;5047356;28;19970;-86
2021/05/15 00:41:21;;;;;;;;;;;;;;;;;;5058091;28;19955;-88
2021/05/15 00:46:32;;;;;;;;;;;;;;;;;;5062804;28;19924;-87
2021/05/15 00:48:59;;;;;;;;;;;;;;;;;;5061620;28;19940;-88
2021/05/15 00:51:24;;;;;;;;;;;;;;;;;;5053418;28;19935;-87
2021/05/15 00:56:33;;;;;;;;;;;;;;;;;;5062227;28;19916;-88
2021/05/15 01:01:42;;;;;;;;;;;;;;;;;;5064505;28;19916;-89
2021/05/15 01:04:07;;;;;;;;;;;;;;;;;;5055060;28;20262;-88
2021/05/15 01:09:16;;;;;;;;;;;;;;;;;;5066130;28;20309;-88
2021/05/15 01:11:42;;;;;;;;;;;;;;;;;;5065886;28;20377;-89
2021/05/15 01:14:08;;;;;;;;;;;;;;;;;;5064245;28;19909;-89
2021/05/15 01:16:33;;;;;;;;;;;;;;;;;;5063212;28;19962;-89
2021/05/15 01:24:26;;;;;;;;;;;;;;;;;;5065348;28;19920;-88
2021/05/15 01:26:51;;;;;;;;;;;;;;;;;;5064501;28;19916;-88
2021/05/15 01:29:16;;;;;;;;;;;;;;;;;;5064259;28;19916;-88
2021/05/15 01:31:41;;;;;;;;;;;;;;;;;;5063763;28;19924;-88
2021/05/15 01:36:51;;;;;;;;;;;;;;;;;;5063638;28;19984;-87
2021/05/15 01:42:00;;;;;;;;;;;;;;;;;;5065245;28;19966;-89
2021/05/15 01:47:09;;;;;;;;;;;;;;;;;;5066019;28;19920;-89
2021/05/15 01:49:34;;;;;;;;;;;;;;;;;;5064978;28;19912;-88
2021/05/15 01:51:59;;;;;;;;;;;;;;;;;;5064806;28;20278;-88
2021/05/15 01:54:24;;;;;;;;;;;;;;;;;;5065697;28;20054;-88
2021/05/15 01:56:49;;;;;;;;;;;;;;;;;;5064479;28;19976;-89
2021/05/15 01:59:14;;;;;;;;;;;;;;;;;;5063966;28;19935;-88
2021/05/15 02:01:40;;;;;;;;;;;;;;;;;;5065646;28;19955;-87
2021/05/15 02:09:33;;;;;;;;;;;;;;;;;;5068493;28;19999;-87
2021/05/15 02:17:26;;;;;;;;;;;;;;;;;;5068380;28;19916;-87
2021/05/15 02:28:03;;;;;;;;;;;;;;;;;;5068111;28;19915;-86
2021/05/15 02:30:28;;;;;;;;;;;;;;;;;;5067348;28;19913;-86
2021/05/15 02:38:21;;;;;;;;;;;;;;;;;;5067012;28;19946;-87
2021/05/15 02:40:47;;;;;;;;;;;;;;;;;;5067483;28;19921;-87
2021/05/15 02:48:40;;;;;;;;;;;;;;;;;;5067354;28;19967;-87
2021/05/15 02:51:05;;;;;;;;;;;;;;;;;;5066647;28;20345;-85
2021/05/15 03:04:26;;;;;;;;;;;;;;;;;;5067557;28;19951;-86
2021/05/15 03:06:51;;;;;;;;;;;;;;;;;;5066405;28;19943;-88
2021/05/15 03:09:16;;;;;;;;;;;;;;;;;;5065727;28;19909;-88
2021/05/15 03:11:41;;;;;;;;;;;;;;;;;;5066242;28;20415;-86
2021/05/15 03:14:07;;;;;;;;;;;;;;;;;;5066543;28;19909;-87
2021/05/15 03:16:32;;;;;;;;;;;;;;;;;;5066725;28;19916;-87
2021/05/15 03:21:41;;;;;;;;;;;;;;;;;;5066548;28;19951;-87
2021/05/15 03:26:50;;;;;;;;;;;;;;;;;;5066839;28;19963;-88
2021/05/15 03:34:43;;;;;;;;;;;;;;;;;;5067073;28;19952;-87
2021/05/15 03:37:08;;;;;;;;;;;;;;;;;;5065680;28;19909;-87
2021/05/15 03:39:33;;;;;;;;;;;;;;;;;;5064791;28;20008;-88
2021/05/15 03:41:58;;;;;;;;;;;;;;;;;;5064408;28;19939;-87
2021/05/15 03:44:23;;;;;;;;;;;;;;;;;;5065724;28;19974;-87
2021/05/15 03:49:32;;;;;;;;;;;;;;;;;;5067239;28;20012;-87
2021/05/15 03:51:58;;;;;;;;;;;;;;;;;;5066083;28;19909;-88
2021/05/15 03:54:23;;;;;;;;;;;;;;;;;;5066644;28;19911;-88
2021/05/15 03:59:32;;;;;;;;;;;;;;;;;;5067653;28;19904;-88
2021/05/15 04:01:57;;;;;;;;;;;;;;;;;;5066454;28;19913;-89
2021/05/15 04:07:06;;;;;;;;;;;;;;;;;;5067033;28;19963;-88
2021/05/15 04:09:31;;;;;;;;;;;;;;;;;;5064549;28;19909;-88
2021/05/15 04:11:57;;;;;;;;;;;;;;;;;;5065227;28;19916;-88
2021/05/15 04:14:29;;;;;;;;;;;;;;;;;;5065258;28;19919;-87
2021/05/15 04:19:38;;;;;;;;;;;;;;;;;;5065999;28;19923;-88
2021/05/15 04:22:03;;;;;;;;;;;;;;;;;;5064876;28;19956;-88
2021/05/15 04:27:13;;;;;;;;;;;;;;;;;;5066025;28;19920;-88
2021/05/15 04:29:38;;;;;;;;;;;;;;;;;;5064540;28;20071;-88
2021/05/15 04:32:03;;;;;;;;;;;;;;;;;;5065052;28;19909;-86
2021/05/15 04:34:29;;;;;;;;;;;;;;;;;;5062958;28;19943;-89
2021/05/15 04:36:54;;;;;;;;;;;;;;;;;;5063700;28;19909;-88
2021/05/15 04:39:19;;;;;;;;;;;;;;;;;;5063728;28;20350;-89
2021/05/15 04:41:44;;;;;;;;;;;;;;;;;;5064169;28;20007;-88
2021/05/15 04:44:09;;;;;;;;;;;;;;;;;;5065197;28;19943;-89
2021/05/15 04:46:34;;;;;;;;;;;;;;;;;;5064809;28;19927;-89
2021/05/15 04:48:59;;;;;;;;;;;;;;;;;;5065751;28;19952;-89
2021/05/15 04:51:24;;;;;;;;;;;;;;;;;;5063628;28;19913;-89
2021/05/15 04:53:50;;;;;;;;;;;;;;;;;;5064887;28;19916;-88
2021/05/15 04:56:15;;;;;;;;;;;;;;;;;;5064867;28;19976;-86
2021/05/15 04:58:40;;;;;;;;;;;;;;;;;;5065753;28;19908;-88
2021/05/15 05:01:05;;;;;;;;;;;;;;;;;;5064701;28;19905;-89
2021/05/15 05:06:14;;;;;;;;;;;;;;;;;;5066439;28;19924;-89
2021/05/15 05:08:39;;;;;;;;;;;;;;;;;;5065192;28;19913;-87
2021/05/15 05:11:04;;;;;;;;;;;;;;;;;;5064529;28;19916;-89
2021/05/15 05:13:29;;;;;;;;;;;;;;;;;;5063447;28;19943;-90
2021/05/15 05:15:54;;;;;;;;;;;;;;;;;;5064282;28;19915;-89
2021/05/15 05:21:04;;;;;;;;;;;;;;;;;;5065935;28;19916;-89
2021/05/15 05:26:13;;;;;;;;;;;;;;;;;;5064486;28;20389;-88
2021/05/15 05:31:22;;;;;;;;;;;;;;;;;;5064939;28;20277;-88
2021/05/15 05:33:48;;;;;;;;;;;;;;;;;;5048122;28;19956;-89
2021/05/15 05:36:13;;;;;;;;;;;;;;;;;;5053367;28;19915;-88
2021/05/15 05:38:38;;;;;;;;;;;;;;;;;;5049653;28;20358;-89
2021/05/15 05:41:03;;;;;;;;;;;;;;;;;;5058370;28;20281;-88
2021/05/15 05:43:28;;;;;;;;;;;;;;;;;;5046106;28;19925;-88
2021/05/15 05:45:54;;;;;;;;;;;;;;;;;;5045555;28;19999;-87
2021/05/15 05:48:19;;;;;;;;;;;;;;;;;;5058866;28;19962;-84
2021/05/15 05:51:01;;;;;;;;;;;;;;;;;;5061719;28;20433;-87
2021/05/15 05:53:26;;;;;;;;;;;;;;;;;;5061694;28;19948;-88
2021/05/15 05:55:52;;;;;;;;;;;;;;;;;;5062200;28;19909;-88
2021/05/15 06:01:01;;;;;;;;;;;;;;;;;;5063712;28;20258;-90
2021/05/15 06:03:26;;;;;;;;;;;;;;;;;;5062003;28;19952;-91
2021/05/15 06:05:58;;;;;;;;;;;;;;;;;;5062370;28;19931;-92
2021/05/15 06:11:07;;;;;;;;;;;;;;;;;;5063703;28;20015;-86
2021/05/15 06:13:32;;;;;;;;;;;;;;;;;;5060044;28;19912;-88
2021/05/15 06:24:09;;;;;;;;;;;;;;;;;;5061498;28;20025;-87
2021/05/15 06:26:35;;;;;;;;;;;;;;;;;;5060963;28;20362;-87
2021/05/15 06:29:00;;;;;;;;;;;;;;;;;;5044295;28;19913;-88
2021/05/15 06:31:25;;;;;;;;;;;;;;;;;;5044883;28;19897;-86
2021/05/15 06:33:50;;;;;;;;;;;;;;;;;;5045473;28;19913;-86
2021/05/15 06:36:15;;;;;;;;;;;;;;;;;;5043333;28;19909;-85
2021/05/15 06:38:42;;;;;;;;;;;;;;;;;;5044398;28;20309;-86
2021/05/15 06:41:07;;;;;;;;;;;;;;;;;;5043784;28;19913;-86
2021/05/15 06:43:32;;;;;;;;;;;;;;;;;;5043151;28;19932;-87
2021/05/15 06:48:41;;;;;;;;;;;;;;;;;;5061292;28;20015;-87
2021/05/15 06:51:06;;;;;;;;;;;;;;;;;;5044322;28;19928;-87
2021/05/15 06:53:31;;;;;;;;;;;;;;;;;;5044170;28;19913;-87
2021/05/15 06:55:56;;;;;;;;;;;;;;;;;;5043164;28;19909;-88
2021/05/15 06:58:24;;;;;;;;;;;;;;;;;;5044797;28;19913;-88
2021/05/15 07:00:49;;;;;;;;;;;;;;;;;;5045476;28;20354;-87
2021/05/15 07:03:14;;;;;;;;;;;;;;;;;;5043334;28;20408;-85
2021/05/15 07:05:39;;;;;;;;;;;;;;;;;;5043851;28;20012;-87
2021/05/15 07:08:04;;;;;;;;;;;;;;;;;;5062317;28;19897;-86
2021/05/15 07:10:29;;;;;;;;;;;;;;;;;;5044400;28;19904;-86
2021/05/15 07:18:22;;;;;;;;;;;;;;;;;;5061810;28;19919;-85
2021/05/15 07:20:47;;;;;;;;;;;;;;;;;;5041407;28;19905;-86
2021/05/15 07:25:57;;;;;;;;;;;;;;;;;;5060667;28;19986;-88
2021/05/15 07:31:06;;;;;;;;;;;;;;;;;;5060079;28;19920;-85
2021/05/15 07:36:17;;;;;;;;;;;;;;;;;;5060394;28;19994;-84
2021/05/15 07:38:42;;;;;;;;;;;;;;;;;;5042203;28;20357;-84
2021/05/15 07:41:07;;;;;;;;;;;;;;;;;;5041941;28;19923;-82
2021/05/15 07:43:33;;;;;;;;;;;;;;;;;;5041918;28;19931;-88
2021/05/15 07:45:58;;;;;;;;;;;;;;;;;;5041600;28;19975;-83
2021/05/15 07:48:37;;;;;;;;;;;;;;;;;;5060027;28;20409;-86
2021/05/15 07:51:02;;;;;;;;;;;;;;;;;;5041894;28;20408;-87
2021/05/15 07:53:27;;;;;;;;;;;;;;;;;;5060976;28;19936;-86
2021/05/15 07:55:52;;;;;;;;;;;;;;;;;;5060659;28;19908;-85
2021/05/15 07:58:17;;;;;;;;;;;;;;;;;;5042839;28;20366;-85
2021/05/15 08:00:43;;;;;;;;;;;;;;;;;;5041445;28;19924;-83
2021/05/15 08:03:08;;;;;;;;;;;;;;;;;;5041816;28;19916;-88
2021/05/15 08:05:33;;;;;;;;;;;;;;;;;;5040842;28;19921;-88
2021/05/15 08:08:00;;;;;;;;;;;;;;;;;;5042654;28;19909;-87
2021/05/15 08:10:25;;;;;;;;;;;;;;;;;;5043121;28;19952;-87
2021/05/15 08:15:34;;;;;;;;;;;;;;;;;;5059100;28;19916;-86
2021/05/15 08:17:59;;;;;;;;;;;;;;;;;;5041628;28;19897;-87
2021/05/15 08:20:24;;;;;;;;;;;;;;;;;;5040706;28;19900;-82
2021/05/15 08:25:33;;;;;;;;;;;;;;;;;;5058709;28;20043;-85
2021/05/15 08:28:01;;;;;;;;;;;;;;;;;;5040594;28;20366;-84
2021/05/15 08:30:29;;;;;;;;;;;;;;;;;;5040098;28;19916;-84
2021/05/15 08:32:54;;;;;;;;;;;;;;;;;;5041716;28;19924;-86
2021/05/15 08:38:03;;;;;;;;;;;;;;;;;;5060090;28;19967;-88
2021/05/15 08:45:57;;;;;;;;;;;;;;;;;;5057737;28;19928;-86
2021/05/15 08:51:26;;;;;;;;;;;;;;;;;;5058709;28;20752;-87
2021/05/15 08:56:35;;;;;;;;;;;;;;;;;;5059033;28;20412;-87
2021/05/15 08:59:00;;;;;;;;;;;;;;;;;;5040960;28;19916;-85
2021/05/15 09:01:25;;;;;;;;;;;;;;;;;;5058057;28;19913;-87
2021/05/15 09:06:35;;;;;;;;;;;;;;;;;;5059545;28;19976;-86
2021/05/15 09:11:44;;;;;;;;;;;;;;;;;;5058971;28;20016;-84
2021/05/15 09:19:37;;;;;;;;;;;;;;;;;;5059034;28;19931;-85
2021/05/15 09:24:46;;;;;;;;;;;;;;;;;;5059327;28;19920;-86
2021/05/15 09:27:12;;;;;;;;;;;;;;;;;;5058483;28;19913;-83
2021/05/15 09:29:37;;;;;;;;;;;;;;;;;;5041100;28;19908;-84
2021/05/15 09:32:02;;;;;;;;;;;;;;;;;;5058046;28;19915;-86
2021/05/15 09:39:55;;;;;;;;;;;;;;;;;;5058913;28;19924;-86
2021/05/15 09:42:20;;;;;;;;;;;;;;;;;;5058754;28;19913;-86
2021/05/15 09:47:29;;;;;;;;;;;;;;;;;;5059106;28;19916;-85
2021/05/15 09:49:54;;;;;;;;;;;;;;;;;;5059054;28;19917;-85
2021/05/15 09:52:19;;;;;;;;;;;;;;;;;;5040223;28;20000;-85
2021/05/15 09:54:45;;;;;;;;;;;;;;;;;;5038450;28;19919;-85
2021/05/15 10:02:37;;;;;;;;;;;;;;;;;;5057675;28;19916;-85
2021/05/15 10:05:03;;;;;;;;;;;;;;;;;;5057574;28;19917;-85
2021/05/15 10:15:39;;;;;;;;;;;;;;;;;;5059861;28;19924;-86
2021/05/15 10:18:05;;;;;;;;;;;;;;;;;;5059684;28;19913;-86
2021/05/15 10:20:30;;;;;;;;;;;;;;;;;;5041473;28;20339;-84
2021/05/15 10:28:23;;;;;;;;;;;;;;;;;;5062410;28;19916;-86
2021/05/15 10:36:16;;;;;;;;;;;;;;;;;;5061446;28;19916;-87
2021/05/15 10:41:25;;;;;;;;;;;;;;;;;;5060474;28;19924;-86
2021/05/15 10:43:50;;;;;;;;;;;;;;;;;;5042584;28;19947;-84
2021/05/15 10:46:16;;;;;;;;;;;;;;;;;;5043408;28;20358;-86
2021/05/15 10:51:24;;;;;;;;;;;;;;;;;;5059366;28;20347;-83
2021/05/15 10:53:50;;;;;;;;;;;;;;;;;;5040515;28;20341;-84
2021/05/15 10:56:17;;;;;;;;;;;;;;;;;;5060798;28;19962;-88
2021/05/15 10:58:42;;;;;;;;;;;;;;;;;;5063174;28;19952;-85
2021/05/15 11:01:09;;;;;;;;;;;;;;;;;;5040839;28;19916;-84
2021/05/15 11:06:18;;;;;;;;;;;;;;;;;;5058169;28;20404;-82
2021/05/15 11:16:54;;;;;;;;;;;;;;;;;;5059422;28;20305;-85
2021/05/15 11:19:19;;;;;;;;;;;;;;;;;;5058215;28;20358;-84
2021/05/15 11:21:45;;;;;;;;;;;;;;;;;;5040821;28;19909;-84
2021/05/15 11:24:10;;;;;;;;;;;;;;;;;;5042510;28;20007;-83
2021/05/15 11:26:36;;;;;;;;;;;;;;;;;;5059173;28;19924;-83
2021/05/15 11:31:45;;;;;;;;;;;;;;;;;;5059584;28;19972;-83
2021/05/15 11:34:11;;;;;;;;;;;;;;;;;;5057856;28;19963;-82
2021/05/15 11:39:20;;;;;;;;;;;;;;;;;;5059754;28;19971;-82
2021/05/15 11:41:45;;;;;;;;;;;;;;;;;;5039707;28;19917;-86
2021/05/15 11:44:10;;;;;;;;;;;;;;;;;;5040364;28;20293;-82
2021/05/15 11:46:36;;;;;;;;;;;;;;;;;;5041120;28;19924;-84
2021/05/15 11:49:01;;;;;;;;;;;;;;;;;;5059281;28;19956;-85
2021/05/15 11:51:26;;;;;;;;;;;;;;;;;;5041851;28;19916;-86
2021/05/15 11:59:20;;;;;;;;;;;;;;;;;;5059592;28;20045;-84
2021/05/15 12:01:46;;;;;;;;;;;;;;;;;;5041523;28;19920;-84
2021/05/15 12:04:15;;;;;;;;;;;;;;;;;;5040156;28;20301;-85
2021/05/15 12:06:40;;;;;;;;;;;;;;;;;;5058254;28;19970;-84
2021/05/15 12:09:05;;;;;;;;;;;;;;;;;;5039427;28;19916;-83
2021/05/15 12:11:30;;;;;;;;;;;;;;;;;;5040790;28;19917;-84
2021/05/15 12:13:55;;;;;;;;;;;;;;;;;;5040359;28;20463;-86
2021/05/15 12:16:20;;;;;;;;;;;;;;;;;;5057311;28;20047;-84
2021/05/15 12:18:45;;;;;;;;;;;;;;;;;;5041933;28;19916;-83
2021/05/15 12:29:23;;;;;;;;;;;;;;;;;;5057942;28;19920;-83
2021/05/15 12:34:32;;;;;;;;;;;;;;;;;;5058777;28;20003;-85
2021/05/15 12:36:57;;;;;;;;;;;;;;;;;;5057272;28;19948;-84
2021/05/15 12:39:22;;;;;;;;;;;;;;;;;;5040926;28;20055;-84
2021/05/15 12:44:31;;;;;;;;;;;;;;;;;;5059047;28;19932;-84
2021/05/15 12:46:56;;;;;;;;;;;;;;;;;;5039896;28;19916;-83
2021/05/15 12:49:22;;;;;;;;;;;;;;;;;;5041476;28;19920;-83
2021/05/15 12:54:31;;;;;;;;;;;;;;;;;;5058531;28;19976;-83
2021/05/15 12:56:56;;;;;;;;;;;;;;;;;;5058110;28;19940;-83
2021/05/15 12:59:21;;;;;;;;;;;;;;;;;;5039155;28;20361;-84
2021/05/15 13:01:48;;;;;;;;;;;;;;;;;;5040179;28;19981;-83
2021/05/15 13:04:13;;;;;;;;;;;;;;;;;;5040722;28;19909;-83
2021/05/15 13:06:38;;;;;;;;;;;;;;;;;;5040318;28;19931;-83
2021/05/15 13:09:03;;;;;;;;;;;;;;;;;;5040239;28;19916;-84
2021/05/15 13:14:12;;;;;;;;;;;;;;;;;;5059420;28;20403;-83
2021/05/15 13:16:37;;;;;;;;;;;;;;;;;;5057437;28;20274;-83
2021/05/15 13:21:47;;;;;;;;;;;;;;;;;;5059673;28;19916;-82
2021/05/15 13:24:13;;;;;;;;;;;;;;;;;;5059185;28;19956;-83
2021/05/15 13:29:22;;;;;;;;;;;;;;;;;;5058758;28;20289;-83
2021/05/15 13:34:31;;;;;;;;;;;;;;;;;;5056905;28;20373;-83
2021/05/15 13:36:56;;;;;;;;;;;;;;;;;;5057742;28;19896;-83
2021/05/15 13:39:21;;;;;;;;;;;;;;;;;;5039465;28;19920;-83
2021/05/15 13:44:30;;;;;;;;;;;;;;;;;;5056489;28;19928;-83
2021/05/15 13:49:39;;;;;;;;;;;;;;;;;;5056841;28;19959;-83
2021/05/15 13:52:04;;;;;;;;;;;;;;;;;;5057226;28;19905;-83
2021/05/15 13:59:57;;;;;;;;;;;;;;;;;;5060465;28;19920;-83
2021/05/15 14:05:07;;;;;;;;;;;;;;;;;;5061358;28;20063;-84
2021/05/15 14:10:16;;;;;;;;;;;;;;;;;;5060689;28;20022;-84
2021/05/15 14:12:41;;;;;;;;;;;;;;;;;;5060586;28;19920;-84
2021/05/15 14:17:50;;;;;;;;;;;;;;;;;;5060575;28;20023;-84
2021/05/15 14:25:46;;;;;;;;;;;;;;;;;;5061337;28;19924;-85
2021/05/15 14:28:11;;;;;;;;;;;;;;;;;;5061155;28;19913;-84
2021/05/15 14:30:36;;;;;;;;;;;;;;;;;;5043927;28;19909;-84
2021/05/15 14:35:45;;;;;;;;;;;;;;;;;;5062238;28;19932;-84
2021/05/15 14:38:10;;;;;;;;;;;;;;;;;;5060248;28;19909;-84
2021/05/15 14:40:35;;;;;;;;;;;;;;;;;;5043627;28;19913;-85
2021/05/15 14:43:00;;;;;;;;;;;;;;;;;;5062536;28;19916;-84
2021/05/15 14:45:25;;;;;;;;;;;;;;;;;;5061872;28;19921;-84
2021/05/15 14:47:51;;;;;;;;;;;;;;;;;;5043790;28;19976;-84
2021/05/15 14:50:16;;;;;;;;;;;;;;;;;;5061286;28;19909;-84
2021/05/15 14:55:25;;;;;;;;;;;;;;;;;;5060205;28;19924;-84
2021/05/15 14:57:50;;;;;;;;;;;;;;;;;;5060944;28;20274;-85
2021/05/15 15:00:16;;;;;;;;;;;;;;;;;;5060233;28;19916;-84
2021/05/15 15:02:41;;;;;;;;;;;;;;;;;;5061033;28;19913;-84
2021/05/15 15:05:06;;;;;;;;;;;;;;;;;;5061394;28;19916;-84
2021/05/15 15:07:32;;;;;;;;;;;;;;;;;;5043004;28;19908;-85
2021/05/15 15:09:58;;;;;;;;;;;;;;;;;;5060385;28;20293;-84
2021/05/15 15:15:07;;;;;;;;;;;;;;;;;;5060850;28;20483;-84
2021/05/15 15:20:16;;;;;;;;;;;;;;;;;;5058228;28;19915;-84
2021/05/15 15:22:41;;;;;;;;;;;;;;;;;;5041478;28;20011;-84
2021/05/15 15:25:06;;;;;;;;;;;;;;;;;;5041654;28;19916;-85
2021/05/15 15:35:43;;;;;;;;;;;;;;;;;;5060352;28;19918;-85
2021/05/15 15:38:08;;;;;;;;;;;;;;;;;;5042983;28;19909;-85
2021/05/15 15:40:35;;;;;;;;;;;;;;;;;;5042166;28;19912;-83
2021/05/15 15:43:00;;;;;;;;;;;;;;;;;;5042169;28;19901;-84
2021/05/15 15:48:09;;;;;;;;;;;;;;;;;;5059972;28;19915;-84
2021/05/15 15:50:39;;;;;;;;;;;;;;;;;;5041303;28;19908;-84
2021/05/15 15:53:05;;;;;;;;;;;;;;;;;;5042399;28;20370;-85
2021/05/15 15:55:30;;;;;;;;;;;;;;;;;;5041990;28;19903;-84
2021/05/15 16:00:39;;;;;;;;;;;;;;;;;;5060092;28;19928;-85
2021/05/15 16:03:04;;;;;;;;;;;;;;;;;;5059932;28;19917;-84
2021/05/15 16:05:29;;;;;;;;;;;;;;;;;;5041213;28;19901;-84
2021/05/15 16:10:38;;;;;;;;;;;;;;;;;;5059907;28;19962;-83
2021/05/15 16:15:47;;;;;;;;;;;;;;;;;;5059521;28;19954;-83
2021/05/15 16:18:12;;;;;;;;;;;;;;;;;;5041581;28;19913;-84
2021/05/15 16:23:24;;;;;;;;;;;;;;;;;;5060127;28;19920;-88
2021/05/15 16:25:49;;;;;;;;;;;;;;;;;;5042759;28;19928;-87
2021/05/15 16:28:14;;;;;;;;;;;;;;;;;;5042456;28;19916;-86
2021/05/15 16:30:40;;;;;;;;;;;;;;;;;;5041361;28;19897;-86
2021/05/15 16:41:17;;;;;;;;;;;;;;;;;;5059659;28;19919;-85
2021/05/15 16:46:26;;;;;;;;;;;;;;;;;;5059569;28;19978;-85
2021/05/15 16:48:51;;;;;;;;;;;;;;;;;;5057448;28;19916;-87
2021/05/15 16:51:17;;;;;;;;;;;;;;;;;;5057713;28;19915;-87
2021/05/15 16:56:25;;;;;;;;;;;;;;;;;;5058980;28;19920;-86
2021/05/15 16:58:51;;;;;;;;;;;;;;;;;;5057830;28;19909;-85
2021/05/15 17:01:17;;;;;;;;;;;;;;;;;;5057998;28;19920;-84
2021/05/15 17:03:42;;;;;;;;;;;;;;;;;;5058200;28;19944;-86
2021/05/15 17:06:08;;;;;;;;;;;;;;;;;;5058668;28;19917;-90
2021/05/15 17:11:17;;;;;;;;;;;;;;;;;;5059938;28;19995;-85
2021/05/15 17:13:42;;;;;;;;;;;;;;;;;;5057002;28;19901;-86
2021/05/15 17:16:07;;;;;;;;;;;;;;;;;;5058551;28;19917;-88
2021/05/15 17:18:32;;;;;;;;;;;;;;;;;;5056632;28;20004;-87
2021/05/15 17:20:57;;;;;;;;;;;;;;;;;;5058178;28;19916;-85
2021/05/15 17:23:22;;;;;;;;;;;;;;;;;;5058620;28;19913;-89
2021/05/15 17:25:50;;;;;;;;;;;;;;;;;;5058880;28;19923;-87
2021/05/15 17:28:16;;;;;;;;;;;;;;;;;;5057543;28;20004;-89
2021/05/15 17:33:24;;;;;;;;;;;;;;;;;;5058073;28;19916;-89
2021/05/15 17:35:49;;;;;;;;;;;;;;;;;;5057949;28;19901;-87
2021/05/15 17:38:16;;;;;;;;;;;;;;;;;;5058021;28;19909;-87
2021/05/15 17:40:41;;;;;;;;;;;;;;;;;;5057366;28;19912;-84
2021/05/15 17:43:06;;;;;;;;;;;;;;;;;;5055624;28;19946;-86
2021/05/15 17:48:15;;;;;;;;;;;;;;;;;;5065249;28;20281;-83
2021/05/15 17:50:41;;;;;;;;;;;;;;;;;;5069688;28;20274;-84
2021/05/15 17:53:06;;;;;;;;;;;;;;;;;;5067618;28;19908;-85
2021/05/15 17:55:31;;;;;;;;;;;;;;;;;;5041712;28;19913;-84
2021/05/15 17:57:56;;;;;;;;;;;;;;;;;;5040334;28;19970;-87
2021/05/15 18:00:21;;;;;;;;;;;;;;;;;;5040373;28;19995;-87
2021/05/15 18:02:53;;;;;;;;;;;;;;;;;;5057261;28;19893;-87
2021/05/15 18:05:18;;;;;;;;;;;;;;;;;;5056436;28;19921;-84
2021/05/15 18:07:43;;;;;;;;;;;;;;;;;;5056450;28;20330;-82
2021/05/15 18:10:09;;;;;;;;;;;;;;;;;;5054833;28;20366;-84
2021/05/15 18:12:34;;;;;;;;;;;;;;;;;;5057135;28;19935;-82
2021/05/15 18:14:59;;;;;;;;;;;;;;;;;;5038355;28;19916;-82
2021/05/15 18:20:08;;;;;;;;;;;;;;;;;;5057095;28;19940;-81
2021/05/15 18:22:33;;;;;;;;;;;;;;;;;;5056194;28;19909;-81
2021/05/15 18:25:00;;;;;;;;;;;;;;;;;;5055412;28;19917;-83
2021/05/15 18:27:25;;;;;;;;;;;;;;;;;;5054332;28;19917;-82
2021/05/15 18:29:50;;;;;;;;;;;;;;;;;;5055675;28;19963;-84
2021/05/15 18:32:15;;;;;;;;;;;;;;;;;;5057123;28;19915;-84
2021/05/15 18:34:42;;;;;;;;;;;;;;;;;;5056071;28;19916;-82
2021/05/15 18:37:07;;;;;;;;;;;;;;;;;;5057354;28;19908;-84
2021/05/15 18:39:32;;;;;;;;;;;;;;;;;;5056666;28;19920;-85
2021/05/15 18:41:59;;;;;;;;;;;;;;;;;;5046839;28;20413;-81
2021/05/15 18:44:24;;;;;;;;;;;;;;;;;;5046113;28;19927;-83
2021/05/15 18:46:49;;;;;;;;;;;;;;;;;;5041961;28;19996;-83
2021/05/15 18:49:15;;;;;;;;;;;;;;;;;;5058424;28;19920;-83
2021/05/15 18:57:07;;;;;;;;;;;;;;;;;;5059342;28;20329;-84
2021/05/15 19:02:17;;;;;;;;;;;;;;;;;;5054570;28;20038;-86
2021/05/15 19:04:42;;;;;;;;;;;;;;;;;;5053766;28;19920;-89
2021/05/15 19:07:07;;;;;;;;;;;;;;;;;;5059980;28;19923;-86
2021/05/15 19:09:32;;;;;;;;;;;;;;;;;;5059137;28;20346;-84
2021/05/15 19:11:58;;;;;;;;;;;;;;;;;;5060878;28;20005;-87
2021/05/15 19:17:07;;;;;;;;;;;;;;;;;;5060156;28;19916;-87
2021/05/15 19:19:33;;;;;;;;;;;;;;;;;;5059077;28;19909;-88
2021/05/15 19:21:58;;;;;;;;;;;;;;;;;;5060477;28;19915;-88
2021/05/15 19:29:51;;;;;;;;;;;;;;;;;;5060279;28;20329;-87
2021/05/15 19:35:00;;;;;;;;;;;;;;;;;;5061051;28;20343;-88
2021/05/15 19:40:09;;;;;;;;;;;;;;;;;;5060555;28;19903;-86
2021/05/15 19:42:34;;;;;;;;;;;;;;;;;;5060466;28;19970;-88
2021/05/15 19:47:43;;;;;;;;;;;;;;;;;;5060323;28;19959;-83
2021/05/15 19:52:52;;;;;;;;;;;;;;;;;;5058804;28;20377;-86
2021/05/15 19:55:18;;;;;;;;;;;;;;;;;;5059043;28;19909;-85
2021/05/15 19:57:43;;;;;;;;;;;;;;;;;;5060099;28;20003;-86
2021/05/15 20:00:08;;;;;;;;;;;;;;;;;;5058990;28;19915;-86
2021/05/15 20:08:01;;;;;;;;;;;;;;;;;;5061877;28;19920;-83
2021/05/15 20:10:26;;;;;;;;;;;;;;;;;;5061423;28;19920;-84
2021/05/15 20:15:35;;;;;;;;;;;;;;;;;;5064147;28;20328;-87
2021/05/15 20:18:00;;;;;;;;;;;;;;;;;;5062644;28;19909;-88
2021/05/15 20:20:27;;;;;;;;;;;;;;;;;;5061391;28;19999;-83
2021/05/15 20:22:52;;;;;;;;;;;;;;;;;;5062815;28;19948;-87
2021/05/15 20:25:17;;;;;;;;;;;;;;;;;;5062341;28;19917;-88
2021/05/15 20:30:26;;;;;;;;;;;;;;;;;;5062787;28;19920;-85
2021/05/15 20:32:53;;;;;;;;;;;;;;;;;;5045202;28;19909;-85
2021/05/15 20:35:18;;;;;;;;;;;;;;;;;;5043828;28;19916;-87
2021/05/15 20:43:11;;;;;;;;;;;;;;;;;;5061426;28;19919;-84
2021/05/15 20:48:33;;;;;;;;;;;;;;;;;;5062258;28;20008;-86
2021/05/15 20:50:58;;;;;;;;;;;;;;;;;;5042810;28;20439;-85
2021/05/15 20:53:23;;;;;;;;;;;;;;;;;;5060287;28;19980;-85
2021/05/15 20:58:36;;;;;;;;;;;;;;;;;;5060907;28;19920;-86
2021/05/15 21:01:01;;;;;;;;;;;;;;;;;;5061603;28;19909;-84
2021/05/15 21:03:26;;;;;;;;;;;;;;;;;;5061598;28;19931;-85
2021/05/15 21:05:54;;;;;;;;;;;;;;;;;;5060957;28;19928;-86
2021/05/15 21:11:03;;;;;;;;;;;;;;;;;;5061441;28;19915;-85
2021/05/15 21:13:28;;;;;;;;;;;;;;;;;;5043866;28;20003;-86
2021/05/15 21:15:53;;;;;;;;;;;;;;;;;;5043857;28;19909;-85
2021/05/15 21:21:03;;;;;;;;;;;;;;;;;;5060396;28;19920;-84
2021/05/15 21:23:28;;;;;;;;;;;;;;;;;;5042532;28;19908;-86
2021/05/15 21:25:53;;;;;;;;;;;;;;;;;;5043139;28;19928;-87
2021/05/15 21:28:18;;;;;;;;;;;;;;;;;;5061373;28;19948;-85
2021/05/15 21:30:43;;;;;;;;;;;;;;;;;;5042693;28;19909;-84
2021/05/15 21:33:08;;;;;;;;;;;;;;;;;;5043551;28;19909;-85
2021/05/15 21:35:33;;;;;;;;;;;;;;;;;;5061201;28;19915;-86
2021/05/15 21:37:59;;;;;;;;;;;;;;;;;;5042213;28;19916;-84
2021/05/15 21:40:24;;;;;;;;;;;;;;;;;;5043158;28;19909;-86
2021/05/15 21:42:54;;;;;;;;;;;;;;;;;;5043758;28;19917;-87
2021/05/15 21:45:23;;;;;;;;;;;;;;;;;;5061622;28;19992;-87
2021/05/15 21:47:51;;;;;;;;;;;;;;;;;;5043762;28;19948;-86
2021/05/15 21:55:44;;;;;;;;;;;;;;;;;;5061078;28;19916;-86
2021/05/15 21:58:09;;;;;;;;;;;;;;;;;;5043929;28;19912;-85
2021/05/15 22:00:35;;;;;;;;;;;;;;;;;;5044301;28;19916;-85
2021/05/15 22:03:00;;;;;;;;;;;;;;;;;;5044110;28;19916;-84
2021/05/15 22:05:25;;;;;;;;;;;;;;;;;;5043663;28;19978;-86
2021/05/15 22:07:50;;;;;;;;;;;;;;;;;;5042138;28;19909;-84
2021/05/15 22:13:01;;;;;;;;;;;;;;;;;;5061671;28;19988;-84
2021/05/15 22:15:26;;;;;;;;;;;;;;;;;;5044559;28;20262;-86
2021/05/15 22:17:51;;;;;;;;;;;;;;;;;;5062226;28;19900;-85
2021/05/15 22:20:17;;;;;;;;;;;;;;;;;;5066195;28;19909;-85
2021/05/15 22:22:42;;;;;;;;;;;;;;;;;;5047121;28;19916;-85
2021/05/15 22:28:01;;;;;;;;;;;;;;;;;;5002292;28;19955;-84
2021/05/15 22:30:26;;;;;;;;;;;;;;;;;;5002427;28;19935;-84
2021/05/15 22:35:36;;;;;;;;;;;;;;;;;;5003126;28;19921;-84
2021/05/15 22:38:02;;;;;;;;;;;;;;;;;;5002502;28;19922;-84
2021/05/15 22:40:27;;;;;;;;;;;;;;;;;;5000989;28;19909;-84
2021/05/15 22:42:52;;;;;;;;;;;;;;;;;;5001562;28;19913;-84
2021/05/15 22:45:18;;;;;;;;;;;;;;;;;;5000576;28;19922;-84
2021/05/15 22:53:12;;;;;;;;;;;;;;;;;;5001947;28;19916;-84
2021/05/15 22:55:37;;;;;;;;;;;;;;;;;;5000483;28;19960;-83
2021/05/15 22:58:02;;;;;;;;;;;;;;;;;;5001766;28;19914;-84
2021/05/15 23:00:28;;;;;;;;;;;;;;;;;;5002067;28;20367;-85
2021/05/15 23:02:53;;;;;;;;;;;;;;;;;;5001646;28;19961;-84
2021/05/15 23:05:18;;;;;;;;;;;;;;;;;;5054191;28;19909;-84
2021/05/15 23:13:11;;;;;;;;;;;;;;;;;;5062875;28;19988;-84
2021/05/15 23:18:20;;;;;;;;;;;;;;;;;;5063263;28;19923;-84
2021/05/15 23:23:29;;;;;;;;;;;;;;;;;;5060875;28;19916;-85
2021/05/15 23:25:54;;;;;;;;;;;;;;;;;;5060434;28;19912;-84
2021/05/15 23:28:22;;;;;;;;;;;;;;;;;;5044105;28;19963;-86
2021/05/15 23:30:48;;;;;;;;;;;;;;;;;;5061847;28;20007;-84
2021/05/15 23:38:41;;;;;;;;;;;;;;;;;;5062025;28;19923;-86
2021/05/15 23:41:06;;;;;;;;;;;;;;;;;;5061672;28;19940;-85
2021/05/15 23:43:31;;;;;;;;;;;;;;;;;;5061385;28;19963;-85